sensor_id;sensor_type;location;lat;lon;timestamp;pressure;altitude;pressure_sealevel;temperature;humidity
62895;BME280;49204;44.916;37.998;2023-03-20T00:02:09;101243.02;;;8.33;75.85
62895;BME280;49204;44.916;37.998;2023-03-20T00:04:38;101239.57;;;8.31;75.83
62895;BME280;49204;44.916;37.998;2023-03-20T00:07:06;101238.42;;;8.23;76.01
62895;BME280;49204;44.916;37.998;2023-03-20T00:09:37;101243.22;;;8.24;76.09
62895;BME280;49204;44.916;37.998;2023-03-20T00:12:06;101246.38;;;8.19;76.24
62895;BME280;49204;44.916;37.998;2023-03-20T00:14:35;101245.93;;;8.21;76.18
62895;BME280;49204;44.916;37.998;2023-03-20T00:17:08;101244.05;;;8.26;76.03
62895;BME280;49204;44.916;37.998;2023-03-20T00:19:35;101240.54;;;8.27;75.95
62895;BME280;49204;44.916;37.998;2023-03-20T00:22:04;101238.31;;;8.28;75.90
62895;BME280;49204;44.916;37.998;2023-03-20T00:24:32;101245.30;;;8.29;75.83
62895;BME280;49204;44.916;37.998;2023-03-20T00:27:01;101239.17;;;8.30;75.81
62895;BME280;49204;44.916;37.998;2023-03-20T00:29:30;101232.18;;;8.29;75.73
62895;BME280;49204;44.916;37.998;2023-03-20T00:32:00;101233.50;;;8.29;75.77
62895;BME280;49204;44.916;37.998;2023-03-20T00:34:29;101233.50;;;8.29;75.79
62895;BME280;49204;44.916;37.998;2023-03-20T00:36:59;101226.99;;;8.26;75.81
62895;BME280;49204;44.916;37.998;2023-03-20T00:39:29;101231.02;;;8.23;75.93
62895;BME280;49204;44.916;37.998;2023-03-20T00:41:59;101235.06;;;8.17;76.14
62895;BME280;49204;44.916;37.998;2023-03-20T00:44:47;101232.03;;;8.16;76.13
62895;BME280;49204;44.916;37.998;2023-03-20T00:47:12;101235.97;;;8.16;76.15
62895;BME280;49204;44.916;37.998;2023-03-20T00:49:41;101232.03;;;8.16;76.19
62895;BME280;49204;44.916;37.998;2023-03-20T00:52:17;101231.13;;;8.17;76.15
62895;BME280;49204;44.916;37.998;2023-03-20T00:54:41;101232.38;;;8.20;76.11
62895;BME280;49204;44.916;37.998;2023-03-20T00:57:27;101233.64;;;8.23;75.93
62895;BME280;49204;44.916;37.998;2023-03-20T01:00:16;101238.06;;;8.21;75.97
62895;BME280;49204;44.916;37.998;2023-03-20T01:02:38;101238.51;;;8.19;75.98
62895;BME280;49204;44.916;37.998;2023-03-20T01:05:07;101237.63;;;8.20;75.94
62895;BME280;49204;44.916;37.998;2023-03-20T01:07:35;101236.83;;;8.16;75.98
62895;BME280;49204;44.916;37.998;2023-03-20T01:10:05;101241.22;;;8.16;76.02
62895;BME280;49204;44.916;37.998;2023-03-20T01:12:34;101238.59;;;8.16;76.03
62895;BME280;49204;44.916;37.998;2023-03-20T01:15:03;101239.96;;;8.12;76.09
62895;BME280;49204;44.916;37.998;2023-03-20T01:17:33;101245.64;;;8.14;76.09
62895;BME280;49204;44.916;37.998;2023-03-20T01:20:08;101249.09;;;8.16;76.04
62895;BME280;49204;44.916;37.998;2023-03-20T01:22:34;101245.06;;;8.19;76.00
62895;BME280;49204;44.916;37.998;2023-03-20T01:25:04;101242.02;;;8.19;76.05
62895;BME280;49204;44.916;37.998;2023-03-20T01:27:32;101253.85;;;8.18;76.02
62895;BME280;49204;44.916;37.998;2023-03-20T01:30:01;101245.06;;;8.19;75.95
62895;BME280;49204;44.916;37.998;2023-03-20T01:32:31;101239.42;;;8.18;76.00
62895;BME280;49204;44.916;37.998;2023-03-20T01:34:59;101235.56;;;8.13;76.08
62895;BME280;49204;44.916;37.998;2023-03-20T01:37:28;101235.20;;;8.10;76.18
62895;BME280;49204;44.916;37.998;2023-03-20T01:39:58;101238.81;;;8.05;76.33
62895;BME280;49204;44.916;37.998;2023-03-20T01:42:27;101237.05;;;8.05;76.39
62895;BME280;49204;44.916;37.998;2023-03-20T01:44:56;101240.02;;;8.09;76.30
62895;BME280;49204;44.916;37.998;2023-03-20T01:47:27;101238.70;;;8.09;76.29
62895;BME280;49204;44.916;37.998;2023-03-20T01:50:25;101240.50;;;8.07;76.36
62895;BME280;49204;44.916;37.998;2023-03-20T01:53:39;101240.13;;;8.05;76.44
62895;BME280;49204;44.916;37.998;2023-03-20T01:55:24;101248.36;;;8.07;76.40
62895;BME280;49204;44.916;37.998;2023-03-20T01:57:56;101244.03;;;8.06;76.44
62895;BME280;49204;44.916;37.998;2023-03-20T02:00:26;101247.56;;;8.04;76.48
62895;BME280;49204;44.916;37.998;2023-03-20T02:02:56;101248.95;;;8.01;76.55
62895;BME280;49204;44.916;37.998;2023-03-20T02:05:29;101245.42;;;8.02;76.49
62895;BME280;49204;44.916;37.998;2023-03-20T02:08:04;101247.70;;;7.98;76.67
62895;BME280;49204;44.916;37.998;2023-03-20T02:10:30;101242.45;;;7.98;76.68
62895;BME280;49204;44.916;37.998;2023-03-20T02:13:03;101240.28;;;7.97;76.72
62895;BME280;49204;44.916;37.998;2023-03-20T02:15:34;101246.81;;;7.99;76.67
62895;BME280;49204;44.916;37.998;2023-03-20T02:18:11;101248.63;;;7.95;76.66
62895;BME280;49204;44.916;37.998;2023-03-20T02:35:28;101249.89;;;7.97;76.62
62895;BME280;49204;44.916;37.998;2023-03-20T02:40:42;101253.93;;;7.92;76.86
62895;BME280;49204;44.916;37.998;2023-03-20T02:46:03;101259.61;;;7.93;76.87
62895;BME280;49204;44.916;37.998;2023-03-20T02:48:45;101256.98;;;7.93;76.85
62895;BME280;49204;44.916;37.998;2023-03-20T02:51:14;101260.53;;;7.89;77.01
62895;BME280;49204;44.916;37.998;2023-03-20T02:54:06;101261.02;;;7.87;77.13
62895;BME280;49204;44.916;37.998;2023-03-20T02:56:40;101253.95;;;7.90;77.08
62895;BME280;49204;44.916;37.998;2023-03-20T03:00:27;101253.91;;;7.93;77.04
62895;BME280;49204;44.916;37.998;2023-03-20T03:02:16;101249.06;;;7.95;77.03
62895;BME280;49204;44.916;37.998;2023-03-20T03:04:58;101257.36;;;7.96;76.96
62895;BME280;49204;44.916;37.998;2023-03-20T03:07:24;101252.14;;;7.94;76.92
62895;BME280;49204;44.916;37.998;2023-03-20T03:10:02;101255.67;;;7.93;76.89
62895;BME280;49204;44.916;37.998;2023-03-20T03:12:42;101255.19;;;7.95;76.80
62895;BME280;49204;44.916;37.998;2023-03-20T03:15:29;101257.33;;;7.97;76.71
62895;BME280;49204;44.916;37.998;2023-03-20T03:17:48;101260.35;;;7.98;76.69
62895;BME280;49204;44.916;37.998;2023-03-20T03:20:21;101259.47;;;7.99;76.75
62895;BME280;49204;44.916;37.998;2023-03-20T03:22:50;101255.11;;;7.98;76.70
62895;BME280;49204;44.916;37.998;2023-03-20T03:25:21;101252.94;;;7.98;76.68
62895;BME280;49204;44.916;37.998;2023-03-20T03:30:30;101256.90;;;7.96;76.70
62895;BME280;49204;44.916;37.998;2023-03-20T03:33:14;101268.35;;;7.92;76.86
62895;BME280;49204;44.916;37.998;2023-03-20T03:35:44;101265.41;;;7.86;77.03
62895;BME280;49204;44.916;37.998;2023-03-20T03:46:37;101266.87;;;7.79;77.35
62895;BME280;49204;44.916;37.998;2023-03-20T03:49:03;101273.34;;;7.82;77.22
62895;BME280;49204;44.916;37.998;2023-03-20T03:51:34;101269.89;;;7.80;77.28
62895;BME280;49204;44.916;37.998;2023-03-20T03:54:11;101267.80;;;7.74;77.57
62895;BME280;49204;44.916;37.998;2023-03-20T03:56:42;101269.56;;;7.74;77.58
62895;BME280;49204;44.916;37.998;2023-03-20T03:59:37;101273.52;;;7.72;77.75
62895;BME280;49204;44.916;37.998;2023-03-20T04:02:02;101277.09;;;7.68;77.88
62895;BME280;49204;44.916;37.998;2023-03-20T04:04:33;101281.07;;;7.65;78.06
62895;BME280;49204;44.916;37.998;2023-03-20T04:07:03;101285.79;;;7.70;78.01
62895;BME280;49204;44.916;37.998;2023-03-20T04:09:32;101280.50;;;7.73;77.88
62895;BME280;49204;44.916;37.998;2023-03-20T04:12:02;101280.02;;;7.76;77.74
62895;BME280;49204;44.916;37.998;2023-03-20T04:14:32;101286.05;;;7.81;77.69
62895;BME280;49204;44.916;37.998;2023-03-20T04:17:01;101291.39;;;7.74;77.97
62895;BME280;49204;44.916;37.998;2023-03-20T04:19:31;101285.74;;;7.73;78.00
62895;BME280;49204;44.916;37.998;2023-03-20T04:22:00;101292.75;;;7.73;78.00
62895;BME280;49204;44.916;37.998;2023-03-20T04:24:30;101290.55;;;7.72;78.05
62895;BME280;49204;44.916;37.998;2023-03-20T04:27:00;101298.89;;;7.70;78.21
62895;BME280;49204;44.916;37.998;2023-03-20T04:29:29;101295.88;;;7.69;78.23
62895;BME280;49204;44.916;37.998;2023-03-20T04:32:02;101293.67;;;7.69;78.26
62895;BME280;49204;44.916;37.998;2023-03-20T04:34:38;101291.47;;;7.71;78.24
62895;BME280;49204;44.916;37.998;2023-03-20T04:37:08;101291.01;;;7.72;78.24
62895;BME280;49204;44.916;37.998;2023-03-20T04:39:44;101293.61;;;7.73;78.22
62895;BME280;49204;44.916;37.998;2023-03-20T04:42:14;101292.70;;;7.74;78.18
62895;BME280;49204;44.916;37.998;2023-03-20T04:44:43;101299.73;;;7.72;78.26
62895;BME280;49204;44.916;37.998;2023-03-20T04:47:13;101300.20;;;7.70;78.36
62895;BME280;49204;44.916;37.998;2023-03-20T04:49:42;101294.16;;;7.67;78.47
62895;BME280;49204;44.916;37.998;2023-03-20T04:52:11;101291.98;;;7.66;78.61
62895;BME280;49204;44.916;37.998;2023-03-20T04:54:41;101296.80;;;7.65;78.77
62895;BME280;49204;44.916;37.998;2023-03-20T04:57:11;101291.13;;;7.66;78.72
62895;BME280;49204;44.916;37.998;2023-03-20T04:59:40;101292.45;;;7.66;78.69
62895;BME280;49204;44.916;37.998;2023-03-20T05:02:09;101296.75;;;7.68;78.63
62895;BME280;49204;44.916;37.998;2023-03-20T05:04:40;101292.36;;;7.69;78.67
62895;BME280;49204;44.916;37.998;2023-03-20T05:07:09;101300.78;;;7.64;78.79
62895;BME280;49204;44.916;37.998;2023-03-20T05:09:42;101301.20;;;7.63;78.86
62895;BME280;49204;44.916;37.998;2023-03-20T05:12:13;101298.11;;;7.65;78.95
62895;BME280;49204;44.916;37.998;2023-03-20T05:14:43;101299.80;;;7.69;79.09
62895;BME280;49204;44.916;37.998;2023-03-20T05:17:23;101302.80;;;7.72;79.16
62895;BME280;49204;44.916;37.998;2023-03-20T05:20:10;101296.70;;;7.71;79.13
62895;BME280;49204;44.916;37.998;2023-03-20T05:22:40;101301.04;;;7.72;79.19
62895;BME280;49204;44.916;37.998;2023-03-20T05:25:13;101298.42;;;7.72;79.07
62895;BME280;49204;44.916;37.998;2023-03-20T05:27:44;101297.09;;;7.74;78.99
62895;BME280;49204;44.916;37.998;2023-03-20T05:30:21;101300.19;;;7.72;78.98
62895;BME280;49204;44.916;37.998;2023-03-20T05:32:57;101301.12;;;7.69;79.14
62895;BME280;49204;44.916;37.998;2023-03-20T05:35:30;101297.16;;;7.71;79.23
62895;BME280;49204;44.916;37.998;2023-03-20T05:38:00;101298.83;;;7.75;79.14
62895;BME280;49204;44.916;37.998;2023-03-20T05:40:48;101299.20;;;7.78;79.16
62895;BME280;49204;44.916;37.998;2023-03-20T05:43:22;101297.02;;;7.79;79.29
62895;BME280;49204;44.916;37.998;2023-03-20T05:45:55;101309.64;;;7.81;79.27
62895;BME280;49204;44.916;37.998;2023-03-20T05:48:42;101308.25;;;7.84;79.21
62895;BME280;49204;44.916;37.998;2023-03-20T05:51:22;101311.29;;;7.86;79.20
62895;BME280;49204;44.916;37.998;2023-03-20T05:53:52;101305.56;;;7.88;79.17
62895;BME280;49204;44.916;37.998;2023-03-20T05:56:22;101308.14;;;7.91;79.12
62895;BME280;49204;44.916;37.998;2023-03-20T05:58:53;101312.05;;;7.93;79.14
62895;BME280;49204;44.916;37.998;2023-03-20T06:01:29;101308.03;;;7.96;79.08
62895;BME280;49204;44.916;37.998;2023-03-20T06:03:59;101307.08;;;8.00;79.06
62895;BME280;49204;44.916;37.998;2023-03-20T06:06:35;101303.14;;;8.00;79.10
62895;BME280;49204;44.916;37.998;2023-03-20T06:09:04;101309.70;;;8.00;79.20
62895;BME280;49204;44.916;37.998;2023-03-20T06:11:34;101312.27;;;8.03;79.24
62895;BME280;49204;44.916;37.998;2023-03-20T06:14:03;101309.65;;;8.03;79.34
62895;BME280;49204;44.916;37.998;2023-03-20T06:16:36;101307.81;;;8.08;79.31
62895;BME280;49204;44.916;37.998;2023-03-20T06:19:05;101310.44;;;8.08;79.38
62895;BME280;49204;44.916;37.998;2023-03-20T06:21:33;101307.33;;;8.10;79.37
62895;BME280;49204;44.916;37.998;2023-03-20T06:24:03;101312.09;;;8.12;79.33
62895;BME280;49204;44.916;37.998;2023-03-20T06:26:32;101312.90;;;8.16;79.37
62895;BME280;49204;44.916;37.998;2023-03-20T06:29:02;101312.90;;;8.16;79.38
62895;BME280;49204;44.916;37.998;2023-03-20T06:31:31;101313.45;;;8.09;79.61
62895;BME280;49204;44.916;37.998;2023-03-20T06:34:01;101309.60;;;8.06;79.73
62895;BME280;49204;44.916;37.998;2023-03-20T06:36:31;101309.58;;;8.08;79.66
62895;BME280;49204;44.916;37.998;2023-03-20T06:39:01;101305.67;;;8.06;79.75
62895;BME280;49204;44.916;37.998;2023-03-20T06:41:30;101303.39;;;8.10;79.79
62895;BME280;49204;44.916;37.998;2023-03-20T06:43:59;101303.53;;;8.04;79.90
62895;BME280;49204;44.916;37.998;2023-03-20T06:46:29;101299.94;;;8.08;79.89
62895;BME280;49204;44.916;37.998;2023-03-20T06:48:58;101294.70;;;8.08;79.79
62895;BME280;49204;44.916;37.998;2023-03-20T06:51:26;101288.11;;;8.10;79.77
62895;BME280;49204;44.916;37.998;2023-03-20T06:53:55;101293.78;;;8.09;79.94
62895;BME280;49204;44.916;37.998;2023-03-20T06:56:26;101290.76;;;8.08;79.99
62895;BME280;49204;44.916;37.998;2023-03-20T06:58:55;101294.22;;;8.10;80.00
62895;BME280;49204;44.916;37.998;2023-03-20T07:01:24;101287.13;;;8.16;80.03
62895;BME280;49204;44.916;37.998;2023-03-20T07:03:54;101289.66;;;8.19;80.09
62895;BME280;49204;44.916;37.998;2023-03-20T07:06:24;101282.22;;;8.20;80.14
62895;BME280;49204;44.916;37.998;2023-03-20T07:08:53;101282.09;;;8.26;80.06
62895;BME280;49204;44.916;37.998;2023-03-20T07:11:22;101295.16;;;8.29;79.97
62895;BME280;49204;44.916;37.998;2023-03-20T07:13:52;101297.72;;;8.32;79.92
62895;BME280;49204;44.916;37.998;2023-03-20T07:16:28;101288.88;;;8.36;79.80
62895;BME280;49204;44.916;37.998;2023-03-20T07:18:56;101290.68;;;8.34;79.68
62895;BME280;49204;44.916;37.998;2023-03-20T07:21:26;101294.70;;;8.29;79.80
62895;BME280;49204;44.916;37.998;2023-03-20T07:23:55;101297.80;;;8.27;79.93
62895;BME280;49204;44.916;37.998;2023-03-20T07:26:25;101301.66;;;8.32;79.91
62895;BME280;49204;44.916;37.998;2023-03-20T07:28:53;101305.59;;;8.32;79.94
62895;BME280;49204;44.916;37.998;2023-03-20T07:31:26;101302.97;;;8.32;79.86
62895;BME280;49204;44.916;37.998;2023-03-20T07:34:18;101302.89;;;8.35;79.92
62895;BME280;49204;44.916;37.998;2023-03-20T07:36:47;101301.90;;;8.42;79.81
62895;BME280;49204;44.916;37.998;2023-03-20T07:39:17;101301.90;;;8.42;79.78
62895;BME280;49204;44.916;37.998;2023-03-20T07:41:47;101304.09;;;8.41;79.82
62895;BME280;49204;44.916;37.998;2023-03-20T07:44:18;101302.78;;;8.43;79.80
62895;BME280;49204;44.916;37.998;2023-03-20T07:46:48;101298.44;;;8.39;79.86
62895;BME280;49204;44.916;37.998;2023-03-20T07:49:17;101307.59;;;8.40;79.75
62895;BME280;49204;44.916;37.998;2023-03-20T07:51:47;101309.77;;;8.42;79.69
62895;BME280;49204;44.916;37.998;2023-03-20T07:54:16;101307.15;;;8.42;79.69
62895;BME280;49204;44.916;37.998;2023-03-20T07:56:45;101309.28;;;8.44;79.67
62895;BME280;49204;44.916;37.998;2023-03-20T07:59:14;101305.34;;;8.44;79.65
62895;BME280;49204;44.916;37.998;2023-03-20T08:01:43;101302.24;;;8.46;79.60
62895;BME280;49204;44.916;37.998;2023-03-20T08:04:12;101308.89;;;8.43;79.73
62895;BME280;49204;44.916;37.998;2023-03-20T08:06:40;101308.91;;;8.40;79.86
62895;BME280;49204;44.916;37.998;2023-03-20T08:09:10;101310.84;;;8.32;80.08
62895;BME280;49204;44.916;37.998;2023-03-20T08:11:38;101301.28;;;8.28;80.33
62895;BME280;49204;44.916;37.998;2023-03-20T08:14:07;101308.89;;;8.21;80.64
62895;BME280;49204;44.916;37.998;2023-03-20T08:16:36;101320.74;;;8.18;80.83
62895;BME280;49204;44.916;37.998;2023-03-20T08:19:04;101314.91;;;8.24;80.79
62895;BME280;49204;44.916;37.998;2023-03-20T08:21:33;101309.21;;;8.26;80.79
62895;BME280;49204;44.916;37.998;2023-03-20T08:24:02;101313.38;;;8.35;80.62
62895;BME280;49204;44.916;37.998;2023-03-20T08:26:30;101315.52;;;8.37;80.49
62895;BME280;49204;44.916;37.998;2023-03-20T08:28:59;101308.89;;;8.43;80.34
62895;BME280;49204;44.916;37.998;2023-03-20T08:31:28;101318.53;;;8.43;80.38
62895;BME280;49204;44.916;37.998;2023-03-20T08:33:57;101309.77;;;8.42;80.53
62895;BME280;49204;44.916;37.998;2023-03-20T08:36:26;101311.59;;;8.37;80.53
62895;BME280;49204;44.916;37.998;2023-03-20T08:38:55;101315.50;;;8.39;80.46
62895;BME280;49204;44.916;37.998;2023-03-20T08:41:23;101317.56;;;8.47;80.34
62895;BME280;49204;44.916;37.998;2023-03-20T08:43:52;101317.42;;;8.53;80.16
62895;BME280;49204;44.916;37.998;2023-03-20T08:46:21;101315.16;;;8.56;80.06
62895;BME280;49204;44.916;37.998;2023-03-20T08:48:49;101310.34;;;8.57;80.14
62895;BME280;49204;44.916;37.998;2023-03-20T08:51:18;101310.20;;;8.63;80.10
62895;BME280;49204;44.916;37.998;2023-03-20T08:53:46;101308.34;;;8.68;79.99
62895;BME280;49204;44.916;37.998;2023-03-20T08:56:15;101300.41;;;8.71;80.03
62895;BME280;49204;44.916;37.998;2023-03-20T08:58:44;101298.25;;;8.71;80.16
62895;BME280;49204;44.916;37.998;2023-03-20T09:01:13;101292.42;;;8.76;80.16
62895;BME280;49204;44.916;37.998;2023-03-20T09:03:42;101296.05;;;8.70;80.30
62895;BME280;49204;44.916;37.998;2023-03-20T09:06:11;101299.50;;;8.72;80.29
62895;BME280;49204;44.916;37.998;2023-03-20T09:08:39;101302.89;;;8.77;80.26
62895;BME280;49204;44.916;37.998;2023-03-20T09:11:08;101298.47;;;8.79;80.34
62895;BME280;49204;44.916;37.998;2023-03-20T09:13:37;101297.03;;;8.85;80.41
62895;BME280;49204;44.916;37.998;2023-03-20T09:16:06;101297.40;;;8.88;80.40
62895;BME280;49204;44.916;37.998;2023-03-20T09:18:34;101296.12;;;8.86;80.39
62895;BME280;49204;44.916;37.998;2023-03-20T09:21:04;101299.56;;;8.88;80.42
62895;BME280;49204;44.916;37.998;2023-03-20T09:23:33;101301.09;;;8.79;80.53
62895;BME280;49204;44.916;37.998;2023-03-20T09:26:02;101305.00;;;8.81;80.62
62895;BME280;49204;44.916;37.998;2023-03-20T09:28:30;101302.66;;;8.88;80.63
62895;BME280;49204;44.916;37.998;2023-03-20T09:31:00;101305.16;;;8.93;80.56
62895;BME280;49204;44.916;37.998;2023-03-20T09:33:29;101298.87;;;9.00;80.37
62895;BME280;49204;44.916;37.998;2023-03-20T09:35:57;101293.67;;;8.98;80.45
62895;BME280;49204;44.916;37.998;2023-03-20T09:38:26;101285.30;;;9.00;80.42
62895;BME280;49204;44.916;37.998;2023-03-20T09:41:02;101286.49;;;9.05;80.29
62895;BME280;49204;44.916;37.998;2023-03-20T09:52:15;101277.63;;;9.09;80.18
62895;BME280;49204;44.916;37.998;2023-03-20T09:54:39;101281.14;;;9.10;80.28
62895;BME280;49204;44.916;37.998;2023-03-20T09:57:20;101275.37;;;9.13;80.23
62895;BME280;49204;44.916;37.998;2023-03-20T09:59:44;101279.57;;;9.20;80.14
62895;BME280;49204;44.916;37.998;2023-03-20T10:02:22;101271.36;;;9.33;79.98
62895;BME280;49204;44.916;37.998;2023-03-20T10:04:48;101267.35;;;9.36;79.94
62895;BME280;49204;44.916;37.998;2023-03-20T10:07:18;101258.55;;;9.37;79.88
62895;BME280;49204;44.916;37.998;2023-03-20T10:09:48;101267.61;;;9.43;79.89
62895;BME280;49204;44.916;37.998;2023-03-20T10:15:24;101263.46;;;9.51;79.71
62895;BME280;49204;44.916;37.998;2023-03-20T10:20:37;101261.83;;;9.46;79.72
62895;BME280;49204;44.916;37.998;2023-03-20T10:23:11;101253.48;;;9.47;79.74
62895;BME280;49204;44.916;37.998;2023-03-20T10:25:54;101256.86;;;9.52;79.66
62895;BME280;49204;44.916;37.998;2023-03-20T10:28:45;101258.00;;;9.58;79.59
62895;BME280;49204;44.916;37.998;2023-03-20T10:31:27;101257.11;;;9.59;79.58
62895;BME280;49204;44.916;37.998;2023-03-20T10:34:16;101261.41;;;9.62;79.48
62895;BME280;49204;44.916;37.998;2023-03-20T10:36:53;101260.02;;;9.65;79.39
62895;BME280;49204;44.916;37.998;2023-03-20T10:39:57;101262.52;;;9.70;79.32
62895;BME280;49204;44.916;37.998;2023-03-20T10:42:31;101265.70;;;9.64;79.27
62895;BME280;49204;44.916;37.998;2023-03-20T10:47:43;101252.73;;;9.58;79.32
62895;BME280;49204;44.916;37.998;2023-03-20T10:50:18;101247.98;;;9.56;79.26
62895;BME280;49204;44.916;37.998;2023-03-20T10:52:48;101245.77;;;9.57;79.29
62895;BME280;49204;44.916;37.998;2023-03-20T10:55:28;101245.31;;;9.58;79.44
62895;BME280;49204;44.916;37.998;2023-03-20T10:58:21;101237.64;;;9.66;79.47
62895;BME280;49204;44.916;37.998;2023-03-20T11:00:50;101240.72;;;9.81;79.43
62895;BME280;49204;44.916;37.998;2023-03-20T11:03:23;101245.83;;;9.87;79.14
62895;BME280;49204;44.916;37.998;2023-03-20T11:05:56;101243.28;;;9.84;78.99
62895;BME280;49204;44.916;37.998;2023-03-20T11:08:25;101244.09;;;9.86;79.07
62895;BME280;49204;44.916;37.998;2023-03-20T11:11:00;101239.50;;;9.94;79.03
62895;BME280;49204;44.916;37.998;2023-03-20T11:13:43;101245.42;;;10.01;78.92
62895;BME280;49204;44.916;37.998;2023-03-20T11:16:21;101249.11;;;10.10;78.67
62895;BME280;49204;44.916;37.998;2023-03-20T11:18:52;101244.62;;;10.14;78.44
62895;BME280;49204;44.916;37.998;2023-03-20T11:21:26;101252.02;;;10.16;78.35
62895;BME280;49204;44.916;37.998;2023-03-20T11:23:55;101252.94;;;10.15;78.27
62895;BME280;49204;44.916;37.998;2023-03-20T11:26:39;101245.97;;;10.12;78.28
62895;BME280;49204;44.916;37.998;2023-03-20T11:29:16;101241.59;;;10.13;78.26
62895;BME280;49204;44.916;37.998;2023-03-20T11:31:44;101245.12;;;10.12;78.18
62895;BME280;49204;44.916;37.998;2023-03-20T11:36:55;101251.39;;;10.08;78.16
62895;BME280;49204;44.916;37.998;2023-03-20T11:39:29;101251.66;;;10.13;78.12
62895;BME280;49204;44.916;37.998;2023-03-20T11:42:01;101251.73;;;10.10;77.93
62895;BME280;49204;44.916;37.998;2023-03-20T11:45:01;101252.78;;;10.04;77.93
62895;BME280;49204;44.916;37.998;2023-03-20T11:47:32;101259.31;;;10.06;77.97
62895;BME280;49204;44.916;37.998;2023-03-20T11:50:03;101257.89;;;10.11;77.90
62895;BME280;49204;44.916;37.998;2023-03-20T11:52:36;101249.57;;;10.10;77.82
62895;BME280;49204;44.916;37.998;2023-03-20T11:55:11;101260.59;;;10.08;77.77
62895;BME280;49204;44.916;37.998;2023-03-20T11:57:38;101257.65;;;10.03;77.73
62895;BME280;49204;44.916;37.998;2023-03-20T12:02:45;101249.88;;;9.99;77.81
62895;BME280;49204;44.916;37.998;2023-03-20T12:05:33;101249.80;;;10.02;77.74
62895;BME280;49204;44.916;37.998;2023-03-20T12:08:19;101254.55;;;10.04;77.70
62895;BME280;49204;44.916;37.998;2023-03-20T12:10:49;101252.39;;;10.03;77.48
62895;BME280;49204;44.916;37.998;2023-03-20T12:13:21;101257.72;;;10.00;77.49
62895;BME280;49204;44.916;37.998;2023-03-20T12:15:53;101259.55;;;9.98;77.50
62895;BME280;49204;44.916;37.998;2023-03-20T12:18:46;101264.03;;;9.95;77.55
62895;BME280;49204;44.916;37.998;2023-03-20T12:29:47;101267.47;;;9.97;77.19
62895;BME280;49204;44.916;37.998;2023-03-20T12:35:11;101260.69;;;9.88;77.08
62895;BME280;49204;44.916;37.998;2023-03-20T12:37:40;101261.33;;;9.81;77.03
62895;BME280;49204;44.916;37.998;2023-03-20T12:40:16;101260.05;;;9.80;77.14
62895;BME280;49204;44.916;37.998;2023-03-20T12:43:04;101267.27;;;9.72;77.16
62895;BME280;49204;44.916;37.998;2023-03-20T12:45:38;101259.14;;;9.64;77.32
62895;BME280;49204;44.916;37.998;2023-03-20T12:50:55;101260.63;;;9.58;77.28
62895;BME280;49204;44.916;37.998;2023-03-20T12:56:17;101257.46;;;9.62;77.35
62895;BME280;49204;44.916;37.998;2023-03-20T12:58:49;101265.06;;;9.73;77.26
62895;BME280;49204;44.916;37.998;2023-03-20T13:01:19;101267.95;;;9.80;77.10
62895;BME280;49204;44.916;37.998;2023-03-20T13:06:31;101268.16;;;9.89;76.97
62895;BME280;49204;44.916;37.998;2023-03-20T13:11:50;101268.23;;;9.85;76.66
62895;BME280;49204;44.916;37.998;2023-03-20T13:14:47;101263.64;;;9.92;76.70
62895;BME280;49204;44.916;37.998;2023-03-20T13:17:19;101260.61;;;9.91;76.51
62895;BME280;49204;44.916;37.998;2023-03-20T13:22:23;101254.91;;;10.07;76.46
62895;BME280;49204;44.916;37.998;2023-03-20T13:25:01;101255.53;;;10.16;76.41
62895;BME280;49204;44.916;37.998;2023-03-20T13:33:25;101248.72;;;10.24;76.02
62895;BME280;49204;44.916;37.998;2023-03-20T13:38:36;101249.91;;;10.43;75.66
62895;BME280;49204;44.916;37.998;2023-03-20T13:41:03;101250.02;;;10.40;75.65
62895;BME280;49204;44.916;37.998;2023-03-20T13:43:51;101250.06;;;10.39;75.50
62895;BME280;49204;44.916;37.998;2023-03-20T13:46:37;101241.70;;;10.39;75.53
62895;BME280;49204;44.916;37.998;2023-03-20T13:49:22;101250.65;;;10.34;75.37
62895;BME280;49204;44.916;37.998;2023-03-20T13:52:08;101248.14;;;10.29;75.33
62895;BME280;49204;44.916;37.998;2023-03-20T13:57:31;101258.47;;;10.05;75.34
62895;BME280;49204;44.916;37.998;2023-03-20T14:05:48;101249.14;;;9.77;75.71
62895;BME280;49204;44.916;37.998;2023-03-20T14:10:54;101244.10;;;9.70;75.58
62895;BME280;49204;44.916;37.998;2023-03-20T14:13:23;101247.27;;;9.66;75.62
62895;BME280;49204;44.916;37.998;2023-03-20T14:15:56;101249.08;;;9.64;75.60
62895;BME280;49204;44.916;37.998;2023-03-20T14:18:25;101255.30;;;9.61;75.59
62895;BME280;49204;44.916;37.998;2023-03-20T14:21:08;101250.92;;;9.60;75.64
62895;BME280;49204;44.916;37.998;2023-03-20T14:23:33;101251.88;;;9.58;75.62
62895;BME280;49204;44.916;37.998;2023-03-20T14:26:16;101258.03;;;9.57;75.62
62895;BME280;49204;44.916;37.998;2023-03-20T14:29:00;101250.28;;;9.52;75.63
62895;BME280;49204;44.916;37.998;2023-03-20T14:31:34;101257.42;;;9.47;75.65
62895;BME280;49204;44.916;37.998;2023-03-20T14:39:56;101254.31;;;9.31;75.85
62895;BME280;49204;44.916;37.998;2023-03-20T14:47:54;101253.49;;;9.29;75.90
62895;BME280;49204;44.916;37.998;2023-03-20T14:51:15;101261.34;;;9.31;75.90
62895;BME280;49204;44.916;37.998;2023-03-20T14:53:07;101262.66;;;9.31;75.82
62895;BME280;49204;44.916;37.998;2023-03-20T14:58:54;101265.35;;;9.27;75.82
62895;BME280;49204;44.916;37.998;2023-03-20T15:03:55;101265.13;;;9.20;75.96
62895;BME280;49204;44.916;37.998;2023-03-20T15:06:26;101267.32;;;9.19;75.98
62895;BME280;49204;44.916;37.998;2023-03-20T15:08:58;101278.69;;;9.20;75.94
62895;BME280;49204;44.916;37.998;2023-03-20T15:11:28;101273.07;;;9.17;76.00